Time,TemperatureF,DewpointF,PressureIn,WindDirection,WindDirectionDegrees,WindSpeedMPH,WindSpeedGustMPH,Humidity,HourlyPrecipIn,Conditions,Clouds,dailyrainin,SoftwareType,DateUTC
2013-03-05 00:00:00,36.7,32.0,30.13,South,188,0.0,1.0,83,0.00,CLR,,0.00,WeatherDisplay:10.37,2013-03-05 05:00:00,
2013-03-05 00:05:00,36.7,32.0,30.13,South,188,0.0,1.0,83,0.00,CLR,,0.00,WeatherDisplay:10.37,2013-03-05 05:05:00,
2013-03-05 00:10:00,36.5,31.8,30.12,South,188,0.0,1.0,83,0.00,CLR,,0.00,WeatherDisplay:10.37,2013-03-05 05:10:00,
2013-03-05 00:15:00,36.5,32.1,30.12,South,188,0.0,2.0,84,0.00,CLR,,0.00,WeatherDisplay:10.37,2013-03-05 05:15:00,
2013-03-05 00:20:00,36.5,32.1,30.12,South,188,1.0,2.0,84,0.00,CLR,,0.00,WeatherDisplay:10.37,2013-03-05 05:20:00,
2013-03-05 00:25:00,36.7,32.6,30.12,South,188,0.0,2.0,85,0.00,CLR,,0.00,WeatherDisplay:10.37,2013-03-05 05:25:00,
2013-03-05 00:30:00,36.9,33.1,30.12,South,188,0.0,2.0,86,0.00,CLR,,0.00,WeatherDisplay:10.37,2013-03-05 05:30:00,
2013-03-05 00:35:00,37.2,34.0,30.12,South,188,0.0,2.0,88,0.00,CLR,,0.00,WeatherDisplay:10.37,2013-03-05 05:35:00,
2013-03-05 00:40:00,37.4,33.9,30.12,South,188,0.0,2.0,87,0.00,CLR,,0.00,WeatherDisplay:10.37,2013-03-05 05:40:00,
2013-03-05 00:45:00,37.6,34.1,30.12,South,187,1.0,2.0,87,0.00,CLR,,0.00,WeatherDisplay:10.37,2013-03-05 05:45:00,
2013-03-05 00:50:00,37.8,34.5,30.11,South,186,1.0,2.0,88,0.00,CLR,,0.00,WeatherDisplay:10.37,2013-03-05 05:50:00,
2013-03-05 00:55:00,38.0,34.7,30.11,South,184,1.0,2.0,88,0.00,CLR,,0.00,WeatherDisplay:10.37,2013-03-05 05:55:00,
2013-03-05 01:00:00,38.3,34.8,30.12,South,185,0.0,2.0,87,0.00,CLR,,0.00,WeatherDisplay:10.37,2013-03-05 06:00:00,
2013-03-05 01:05:00,38.3,34.8,30.11,South,188,0.0,2.0,87,0.00,CLR,,0.00,WeatherDisplay:10.37,2013-03-05 06:05:00,
2013-03-05 01:10:00,38.3,34.8,30.11,South,188,0.0,2.0,87,0.00,CLR,,0.00,WeatherDisplay:10.37,2013-03-05 06:10:00,
2013-03-05 01:15:00,38.3,35.1,30.11,South,188,0.0,2.0,88,0.00,CLR,,0.00,WeatherDisplay:10.37,2013-03-05 06:15:00,
2013-03-05 01:20:00,38.3,35.1,30.12,South,188,0.0,2.0,88,0.00,CLR,,0.00,WeatherDisplay:10.37,2013-03-05 06:20:00,
2013-03-05 01:25:00,38.3,34.8,30.11,South,188,0.0,1.0,87,0.00,CLR,,0.00,WeatherDisplay:10.37,2013-03-05 06:25:00,
2013-03-05 01:30:00,38.1,34.6,30.11,South,188,0.0,1.0,87,0.00,CLR,,0.00,WeatherDisplay:10.37,2013-03-05 06:30:00,
2013-03-05 01:35:00,38.1,34.6,30.11,South,188,0.0,0.0,87,0.00,CLR,,0.00,WeatherDisplay:10.37,2013-03-05 06:35:00,
2013-03-05 01:40:00,37.9,34.7,30.12,South,188,0.0,1.0,88,0.00,CLR,,0.00,WeatherDisplay:10.37,2013-03-05 06:40:00,
2013-03-05 01:45:00,37.8,34.8,30.12,South,188,0.0,0.0,89,0.00,CLR,,0.00,WeatherDisplay:10.37,2013-03-05 06:45:00,
2013-03-05 01:50:00,37.8,35.1,30.12,South,188,0.0,1.0,90,0.00,CLR,,0.00,WeatherDisplay:10.37,2013-03-05 06:50:00,
2013-03-05 01:55:00,37.8,35.1,30.12,South,188,0.0,1.0,90,0.00,CLR,,0.00,WeatherDisplay:10.37,2013-03-05 06:55:00,
2013-03-05 02:00:00,37.6,34.9,30.11,South,188,0.0,2.0,90,0.00,CLR,,0.00,WeatherDisplay:10.37,2013-03-05 07:00:00,
2013-03-05 02:05:00,37.6,34.9,30.11,South,188,0.0,1.0,90,0.00,CLR,,0.00,WeatherDisplay:10.37,2013-03-05 07:05:00,
2013-03-05 02:10:00,37.8,35.1,30.11,South,188,0.0,1.0,90,0.00,CLR,,0.00,WeatherDisplay:10.37,2013-03-05 07:10:00,
2013-03-05 02:15:00,37.8,35.4,30.11,South,188,0.0,1.0,91,0.00,CLR,,0.00,WeatherDisplay:10.37,2013-03-05 07:15:00,
2013-03-05 02:20:00,37.7,35.3,30.12,South,188,0.0,1.0,91,0.00,CLR,,0.00,WeatherDisplay:10.37,2013-03-05 07:20:00,
2013-03-05 02:25:00,37.4,35.0,30.11,South,188,0.0,1.0,91,0.00,CLR,,0.00,WeatherDisplay:10.37,2013-03-05 07:25:00,
2013-03-05 02:30:00,37.4,35.3,30.11,South,188,0.0,1.0,92,0.00,CLR,,0.00,WeatherDisplay:10.37,2013-03-05 07:30:00,
2013-03-05 02:35:00,37.2,35.1,30.11,South,188,0.0,0.0,92,0.00,CLR,,0.00,WeatherDisplay:10.37,2013-03-05 07:35:00,
2013-03-05 02:40:00,37.2,35.1,30.11,South,188,0.0,0.0,92,0.00,CLR,,0.00,WeatherDisplay:10.37,2013-03-05 07:40:00,
2013-03-05 02:45:00,37.2,35.4,30.11,South,188,0.0,0.0,93,0.00,CLR,,0.00,WeatherDisplay:10.37,2013-03-05 07:45:00,
2013-03-05 02:50:00,37.2,35.4,30.12,South,188,0.0,0.0,93,0.00,CLR,,0.00,WeatherDisplay:10.37,2013-03-05 07:50:00,
2013-03-05 02:55:00,37.2,35.4,30.12,South,188,0.0,1.0,93,0.00,CLR,,0.00,WeatherDisplay:10.37,2013-03-05 07:55:00,
2013-03-05 03:00:00,37.2,35.7,30.11,South,188,0.0,1.0,94,0.00,CLR,,0.00,WeatherDisplay:10.37,2013-03-05 08:00:00,
2013-03-05 03:05:00,37.2,35.7,30.12,South,188,0.0,0.0,94,0.00,CLR,,0.00,WeatherDisplay:10.37,2013-03-05 08:05:00,
2013-03-05 03:10:00,37.4,36.1,30.12,South,188,0.0,0.0,95,0.00,CLR,,0.00,WeatherDisplay:10.37,2013-03-05 08:10:00,
2013-03-05 03:20:00,37.2,36.2,30.11,South,188,0.0,1.0,96,0.00,CLR,,0.00,WeatherDisplay:10.37,2013-03-05 08:20:00,
2013-03-05 03:30:00,37.4,36.4,30.11,South,188,0.0,0.0,96,0.00,CLR,,0.00,WeatherDisplay:10.37,2013-03-05 08:30:00,
2013-03-05 03:35:00,37.4,36.4,30.12,South,188,0.0,0.0,96,0.00,CLR,,0.00,WeatherDisplay:10.37,2013-03-05 08:35:00,
2013-03-05 03:40:00,37.4,36.4,30.12,South,188,0.0,0.0,96,0.00,CLR,,0.00,WeatherDisplay:10.37,2013-03-05 08:40:00,
2013-03-05 03:50:00,37.4,36.6,30.12,South,188,0.0,1.0,97,0.00,CLR,,0.00,WeatherDisplay:10.37,2013-03-05 08:50:00,
2013-03-05 03:55:00,37.4,36.6,30.11,South,188,0.0,2.0,97,0.00,CLR,,0.00,WeatherDisplay:10.37,2013-03-05 08:55:00,
2013-03-05 04:00:00,37.5,36.8,30.11,South,188,0.0,1.0,97,0.00,CLR,,0.00,WeatherDisplay:10.37,2013-03-05 09:00:00,
2013-03-05 04:05:00,37.6,36.8,30.11,South,188,0.0,0.0,97,0.00,CLR,,0.00,WeatherDisplay:10.37,2013-03-05 09:05:00,
2013-03-05 04:10:00,37.4,36.6,30.11,South,188,0.0,0.0,97,0.00,CLR,,0.00,WeatherDisplay:10.37,2013-03-05 09:10:00,
2013-03-05 04:15:00,37.4,36.6,30.12,South,188,0.0,1.0,97,0.00,CLR,,0.00,WeatherDisplay:10.37,2013-03-05 09:15:00,
2013-03-05 04:20:00,37.2,36.4,30.12,South,188,0.0,0.0,97,0.00,CLR,,0.00,WeatherDisplay:10.37,2013-03-05 09:20:00,
2013-03-05 04:25:00,37.0,36.3,30.13,South,188,0.0,0.0,97,0.00,CLR,,0.00,WeatherDisplay:10.37,2013-03-05 09:25:00,
2013-03-05 04:30:00,36.8,36.3,30.12,South,188,0.0,0.0,98,0.00,CLR,,0.00,WeatherDisplay:10.37,2013-03-05 09:30:00,
2013-03-05 04:35:00,36.5,36.0,30.12,South,188,0.0,1.0,98,0.00,CLR,,0.00,WeatherDisplay:10.37,2013-03-05 09:35:00,
2013-03-05 04:40:00,36.3,36.1,30.12,South,188,1.0,2.0,99,0.00,CLR,,0.00,WeatherDisplay:10.37,2013-03-05 09:40:00,
2013-03-05 04:45:00,36.5,36.2,30.12,South,188,0.0,2.0,99,0.00,CLR,,0.00,WeatherDisplay:10.37,2013-03-05 09:45:00,
2013-03-05 04:50:00,36.5,36.2,30.12,South,188,0.0,0.0,99,0.00,CLR,,0.00,WeatherDisplay:10.37,2013-03-05 09:50:00,
2013-03-05 04:55:00,36.5,36.2,30.13,South,188,0.0,1.0,99,0.00,CLR,,0.00,WeatherDisplay:10.37,2013-03-05 09:55:00,
2013-03-05 05:00:00,36.4,36.2,30.13,South,188,0.0,1.0,99,0.00,CLR,,0.00,WeatherDisplay:10.37,2013-03-05 10:00:00,
2013-03-05 05:05:00,36.5,36.2,30.13,South,188,0.0,0.0,99,0.00,CLR,,0.00,WeatherDisplay:10.37,2013-03-05 10:05:00,
2013-03-05 05:10:00,36.5,36.2,30.13,South,188,0.0,0.0,99,0.00,CLR,,0.00,WeatherDisplay:10.37,2013-03-05 10:10:00,
2013-03-05 05:15:00,36.3,36.1,30.13,South,188,0.0,1.0,99,0.00,CLR,,0.00,WeatherDisplay:10.37,2013-03-05 10:15:00,
2013-03-05 05:20:00,36.4,36.2,30.13,South,188,0.0,1.0,99,0.00,CLR,,0.00,WeatherDisplay:10.37,2013-03-05 10:20:00,
2013-03-05 05:25:00,36.4,36.2,30.13,South,188,0.0,1.0,99,0.00,CLR,,0.00,WeatherDisplay:10.37,2013-03-05 10:25:00,
2013-03-05 05:30:00,36.5,36.2,30.13,South,188,0.0,2.0,99,0.00,CLR,,0.00,WeatherDisplay:10.37,2013-03-05 10:30:00,
2013-03-05 05:35:00,36.3,36.1,30.13,South,188,0.0,1.0,99,0.00,CLR,,0.00,WeatherDisplay:10.37,2013-03-05 10:35:00,
2013-03-05 05:40:00,36.5,36.2,30.14,South,188,0.0,1.0,99,0.00,CLR,,0.00,WeatherDisplay:10.37,2013-03-05 10:40:00,
2013-03-05 05:45:00,36.5,36.2,30.14,South,188,0.0,0.0,99,0.00,CLR,,0.00,WeatherDisplay:10.37,2013-03-05 10:45:00,
2013-03-05 05:50:00,36.5,36.2,30.13,South,188,0.0,0.0,99,0.00,CLR,,0.00,WeatherDisplay:10.37,2013-03-05 10:50:00,
2013-03-05 05:55:00,36.5,36.2,30.14,South,188,0.0,0.0,99,0.00,CLR,,0.00,WeatherDisplay:10.37,2013-03-05 10:55:00,
2013-03-05 06:00:00,36.7,36.4,30.14,South,188,0.0,0.0,99,0.00,CLR,,0.00,WeatherDisplay:10.37,2013-03-05 11:00:00,
2013-03-05 06:05:00,36.7,36.4,30.14,South,188,0.0,0.0,99,0.00,CLR,,0.00,WeatherDisplay:10.37,2013-03-05 11:05:00,
2013-03-05 06:10:00,36.7,36.4,30.13,South,188,1.0,2.0,99,0.00,CLR,,0.00,WeatherDisplay:10.37,2013-03-05 11:10:00,
2013-03-05 06:15:00,36.9,36.6,30.13,South,188,0.0,2.0,99,0.00,CLR,,0.00,WeatherDisplay:10.37,2013-03-05 11:15:00,
2013-03-05 06:20:00,37.0,36.8,30.13,South,188,1.0,2.0,99,0.00,CLR,,0.00,WeatherDisplay:10.37,2013-03-05 11:20:00,
2013-03-05 06:25:00,37.0,36.8,30.13,South,188,0.0,2.0,99,0.00,CLR,,0.00,WeatherDisplay:10.37,2013-03-05 11:25:00,
2013-03-05 06:30:00,37.0,36.8,30.13,SSW,196,0.0,2.0,99,0.00,CLR,,0.00,WeatherDisplay:10.37,2013-03-05 11:30:00,
2013-03-05 06:35:00,37.2,36.9,30.13,SSW,195,0.0,2.0,99,0.00,CLR,,0.00,WeatherDisplay:10.37,2013-03-05 11:35:00,
2013-03-05 06:40:00,37.0,36.8,30.13,South,188,0.0,2.0,99,0.00,CLR,,0.00,WeatherDisplay:10.37,2013-03-05 11:40:00,
2013-03-05 06:45:00,37.0,36.8,30.13,South,189,1.0,2.0,99,0.00,CLR,,0.00,WeatherDisplay:10.37,2013-03-05 11:45:00,
2013-03-05 06:50:00,37.2,36.9,30.13,South,188,0.0,2.0,99,0.00,CLR,,0.00,WeatherDisplay:10.37,2013-03-05 11:50:00,
2013-03-05 06:55:00,37.2,37.0,30.12,South,188,0.0,1.0,99,0.00,CLR,,0.00,WeatherDisplay:10.37,2013-03-05 11:55:00,
2013-03-05 07:00:00,37.6,37.3,30.12,South,188,0.0,1.0,99,0.00,CLR,,0.00,WeatherDisplay:10.37,2013-03-05 12:00:00,
2013-03-05 07:05:00,37.9,37.7,30.12,South,188,0.0,2.0,99,0.00,CLR,,0.00,WeatherDisplay:10.37,2013-03-05 12:05:00,
2013-03-05 07:10:00,38.5,38.2,30.12,South,188,0.0,2.0,99,0.00,CLR,,0.00,WeatherDisplay:10.37,2013-03-05 12:10:00,
2013-03-05 07:15:00,39.0,38.8,30.12,South,188,0.0,2.0,99,0.00,CLR,,0.00,WeatherDisplay:10.37,2013-03-05 12:15:00,
2013-03-05 07:20:00,39.6,39.4,30.12,South,188,1.0,2.0,99,0.00,CLR,,0.00,WeatherDisplay:10.37,2013-03-05 12:20:00,
2013-03-05 07:25:00,40.4,40.2,30.12,South,188,0.0,3.0,99,0.00,CLR,,0.00,WeatherDisplay:10.37,2013-03-05 12:25:00,
2013-03-05 07:30:00,41.0,40.7,30.12,South,188,0.0,2.0,99,0.00,CLR,,0.00,WeatherDisplay:10.37,2013-03-05 12:30:00,
2013-03-05 07:35:00,41.4,41.1,30.12,South,188,0.0,2.0,99,0.00,CLR,,0.00,WeatherDisplay:10.37,2013-03-05 12:35:00,
2013-03-05 07:40:00,41.8,41.5,30.12,South,191,1.0,3.0,99,0.00,CLR,,0.00,WeatherDisplay:10.37,2013-03-05 12:40:00,
2013-03-05 07:45:00,42.3,42.0,30.13,SSW,210,0.0,3.0,99,0.00,CLR,,0.00,WeatherDisplay:10.37,2013-03-05 12:45:00,
2013-03-05 07:50:00,42.6,42.4,30.13,SSW,206,0.0,2.0,99,0.00,CLR,,0.00,WeatherDisplay:10.37,2013-03-05 12:50:00,
2013-03-05 07:55:00,43.2,42.9,30.13,SSW,192,1.0,2.0,99,0.00,CLR,,0.00,WeatherDisplay:10.37,2013-03-05 12:55:00,
2013-03-05 08:00:00,43.7,43.4,30.13,SSW,200,1.0,3.0,99,0.00,CLR,,0.00,WeatherDisplay:10.37,2013-03-05 13:00:00,
2013-03-05 08:05:00,44.1,43.9,30.13,SSW,198,1.0,2.0,99,0.00,CLR,,0.00,WeatherDisplay:10.37,2013-03-05 13:05:00,
2013-03-05 08:10:00,44.5,44.3,30.12,SSW,193,1.0,2.0,99,0.00,CLR,,0.00,WeatherDisplay:10.37,2013-03-05 13:10:00,
2013-03-05 08:15:00,45.2,44.9,30.12,South,181,1.0,2.0,99,0.00,CLR,,0.00,WeatherDisplay:10.37,2013-03-05 13:15:00,
2013-03-05 08:20:00,46.2,46.0,30.13,SSW,198,0.0,3.0,99,0.00,CLR,,0.00,WeatherDisplay:10.37,2013-03-05 13:20:00,
2013-03-05 08:25:00,46.9,46.7,30.13,SW,214,1.0,4.0,99,0.00,CLR,,0.00,WeatherDisplay:10.37,2013-03-05 13:25:00,
2013-03-05 08:30:00,47.1,46.9,30.13,SW,215,1.0,4.0,99,0.00,CLR,,0.00,WeatherDisplay:10.37,2013-03-05 13:30:00,
2013-03-05 08:35:00,48.1,47.8,30.13,SSW,209,1.0,6.0,99,0.00,CLR,,0.00,WeatherDisplay:10.37,2013-03-05 13:35:00,
2013-03-05 08:40:00,49.5,48.9,30.12,SSW,199,1.0,6.0,98,0.00,CLR,,0.00,WeatherDisplay:10.37,2013-03-05 13:40:00,
2013-03-05 08:45:00,50.5,49.4,30.12,SSW,213,1.0,4.0,96,0.00,CLR,,0.00,WeatherDisplay:10.37,2013-03-05 13:45:00,
2013-03-05 08:50:00,51.7,49.5,30.11,SSW,205,1.0,4.0,92,0.00,CLR,,0.00,WeatherDisplay:10.37,2013-03-05 13:50:00,
2013-03-05 08:55:00,52.9,49.5,30.12,South,182,1.0,4.0,88,0.00,CLR,,0.00,WeatherDisplay:10.37,2013-03-05 13:55:00,
2013-03-05 09:00:00,53.8,49.0,30.11,SSW,209,1.0,5.0,84,0.00,CLR,,0.00,WeatherDisplay:10.37,2013-03-05 14:00:00,
2013-03-05 09:05:00,54.7,48.0,30.11,South,191,1.0,6.0,78,0.00,CLR,,0.00,WeatherDisplay:10.37,2013-03-05 14:05:00,
2013-03-05 09:10:00,55.3,47.5,30.11,SSE,168,2.0,6.0,75,0.00,CLR,,0.00,WeatherDisplay:10.37,2013-03-05 14:10:00,
2013-03-05 09:15:00,56.2,46.9,30.10,South,178,1.0,6.0,71,0.00,CLR,,0.00,WeatherDisplay:10.37,2013-03-05 14:15:00,
2013-03-05 09:20:00,57.2,46.7,30.10,SSW,203,2.0,6.0,68,0.00,CLR,,0.00,WeatherDisplay:10.37,2013-03-05 14:20:00,
2013-03-05 09:25:00,57.7,45.6,30.10,SSW,192,1.0,8.0,64,0.00,CLR,,0.00,WeatherDisplay:10.37,2013-03-05 14:25:00,
2013-03-05 09:30:00,57.7,45.2,30.10,South,187,1.0,6.0,63,0.00,CLR,,0.00,WeatherDisplay:10.37,2013-03-05 14:30:00,
2013-03-05 09:35:00,58.3,45.3,30.10,SSW,193,0.0,6.0,62,0.00,CLR,,0.00,WeatherDisplay:10.37,2013-03-05 14:35:00,
2013-03-05 09:40:00,59.4,44.1,30.09,SSW,196,2.0,8.0,57,0.00,CLR,,0.00,WeatherDisplay:10.37,2013-03-05 14:40:00,
2013-03-05 09:45:00,59.8,42.1,30.08,SSW,196,2.0,8.0,52,0.00,CLR,,0.00,WeatherDisplay:10.37,2013-03-05 14:45:00,
2013-03-05 09:50:00,60.4,43.2,30.08,SSW,204,0.0,6.0,53,0.00,CLR,,0.00,WeatherDisplay:10.37,2013-03-05 14:50:00,
2013-03-05 09:55:00,61.1,41.3,30.08,South,180,2.0,9.0,48,0.00,CLR,,0.00,WeatherDisplay:10.37,2013-03-05 14:55:00,
2013-03-05 10:00:00,61.7,40.1,30.07,South,177,3.0,8.0,45,0.00,CLR,,0.00,WeatherDisplay:10.37,2013-03-05 15:00:00,
2013-03-05 10:05:00,62.3,41.3,30.07,South,178,1.0,6.0,46,0.00,CLR,,0.00,WeatherDisplay:10.37,2013-03-05 15:05:00,
2013-03-05 10:10:00,63.2,40.3,30.07,SSW,197,1.0,7.0,43,0.00,CLR,,0.00,WeatherDisplay:10.37,2013-03-05 15:10:00,
2013-03-05 10:15:00,63.9,37.7,30.07,South,175,5.0,8.0,38,0.00,CLR,,0.00,WeatherDisplay:10.37,2013-03-05 15:15:00,
2013-03-05 10:20:00,63.8,36.3,30.06,South,191,3.0,8.0,36,0.00,CLR,,0.00,WeatherDisplay:10.37,2013-03-05 15:20:00,
2013-03-05 10:25:00,63.9,37.1,30.06,SSW,198,3.0,10.0,37,0.00,CLR,,0.00,WeatherDisplay:10.37,2013-03-05 15:25:00,
2013-03-05 10:30:00,64.8,37.9,30.06,SSW,198,3.0,8.0,37,0.00,CLR,,0.00,WeatherDisplay:10.37,2013-03-05 15:30:00,
2013-03-05 10:35:00,65.4,34.8,30.06,SSW,201,5.0,8.0,32,0.00,CLR,,0.00,WeatherDisplay:10.37,2013-03-05 15:35:00,
2013-03-05 10:40:00,65.9,36.0,30.06,South,187,2.0,10.0,33,0.00,CLR,,0.00,WeatherDisplay:10.37,2013-03-05 15:40:00,
2013-03-05 10:45:00,66.4,36.4,30.06,SSW,197,0.0,6.0,33,0.00,CLR,,0.00,WeatherDisplay:10.37,2013-03-05 15:45:00,
2013-03-05 10:50:00,67.1,36.3,30.05,SW,222,1.0,5.0,32,0.00,CLR,,0.00,WeatherDisplay:10.37,2013-03-05 15:50:00,
2013-03-05 10:55:00,67.6,36.7,30.05,WSW,237,0.0,5.0,32,0.00,CLR,,0.00,WeatherDisplay:10.37,2013-03-05 15:55:00,
2013-03-05 11:00:00,68.2,35.5,30.05,West,270,1.0,8.0,30,0.00,CLR,,0.00,WeatherDisplay:10.37,2013-03-05 16:00:00,
2013-03-05 11:05:00,68.2,34.7,30.05,West,273,2.0,7.0,29,0.00,CLR,,0.00,WeatherDisplay:10.37,2013-03-05 16:05:00,
2013-03-05 11:10:00,68.7,36.0,30.05,SW,232,1.0,7.0,30,0.00,CLR,,0.00,WeatherDisplay:10.37,2013-03-05 16:10:00,
2013-03-05 11:15:00,69.3,33.8,30.04,SW,219,5.0,12.0,27,0.00,CLR,,0.00,WeatherDisplay:10.37,2013-03-05 16:15:00,
2013-03-05 11:20:00,68.9,32.6,30.05,SSW,204,2.0,12.0,26,0.00,CLR,,0.00,WeatherDisplay:10.37,2013-03-05 16:20:00,
2013-03-05 11:25:00,69.3,34.7,30.05,SSW,202,1.0,7.0,28,0.00,CLR,,0.00,WeatherDisplay:10.37,2013-03-05 16:25:00,
2013-03-05 11:30:00,69.3,34.8,30.05,SW,227,2.0,7.0,28,0.00,CLR,,0.00,WeatherDisplay:10.37,2013-03-05 16:30:00,
2013-03-05 11:35:00,68.7,35.2,30.04,West,261,1.0,4.0,29,0.00,CLR,,0.00,WeatherDisplay:10.37,2013-03-05 16:35:00,
2013-03-05 11:45:00,68.2,35.5,30.03,SSW,200,1.0,8.0,30,0.00,CLR,,0.00,WeatherDisplay:10.37,2013-03-05 16:45:00,
2013-03-05 11:50:00,68.1,36.3,30.02,SSW,209,1.0,6.0,31,0.00,CLR,,0.00,WeatherDisplay:10.37,2013-03-05 16:50:00,
2013-03-05 11:55:00,68.9,37.0,30.02,SW,232,0.0,2.0,31,0.00,CLR,,0.00,WeatherDisplay:10.37,2013-03-05 16:55:00,
2013-03-05 12:00:00,69.6,35.9,30.03,West,267,1.0,7.0,29,0.00,CLR,,0.00,WeatherDisplay:10.37,2013-03-05 17:00:00,
2013-03-05 12:05:00,70.3,35.6,30.03,WSW,245,5.0,12.0,28,0.00,CLR,,0.00,WeatherDisplay:10.37,2013-03-05 17:05:00,
2013-03-05 12:10:00,70.8,35.1,30.02,SSW,206,1.0,12.0,27,0.00,CLR,,0.00,WeatherDisplay:10.37,2013-03-05 17:10:00,
2013-03-05 12:15:00,70.7,36.0,30.01,SSW,205,1.0,6.0,28,0.00,CLR,,0.00,WeatherDisplay:10.37,2013-03-05 17:15:00,
2013-03-05 12:20:00,70.3,35.6,30.01,South,189,1.0,5.0,28,0.00,CLR,,0.00,WeatherDisplay:10.37,2013-03-05 17:20:00,
2013-03-05 12:25:00,68.7,35.2,30.01,South,188,1.0,10.0,29,0.00,CLR,,0.00,WeatherDisplay:10.37,2013-03-05 17:25:00,
2013-03-05 12:30:00,67.9,36.1,30.01,SSW,203,1.0,6.0,31,0.00,CLR,,0.00,WeatherDisplay:10.37,2013-03-05 17:30:00,
2013-03-05 12:35:00,67.1,35.4,30.00,SW,215,1.0,8.0,31,0.00,CLR,,0.00,WeatherDisplay:10.37,2013-03-05 17:35:00,
2013-03-05 12:40:00,66.7,35.9,30.00,SSW,213,0.0,3.0,32,0.00,CLR,,0.00,WeatherDisplay:10.37,2013-03-05 17:40:00,
2013-03-05 12:45:00,66.7,36.7,29.99,SW,219,0.0,3.0,33,0.00,CLR,,0.00,WeatherDisplay:10.37,2013-03-05 17:45:00,
2013-03-05 12:50:00,66.7,36.7,29.99,SSE,159,1.0,3.0,33,0.00,CLR,,0.00,WeatherDisplay:10.37,2013-03-05 17:50:00,
2013-03-05 13:00:00,66.9,37.6,29.99,SW,217,0.0,5.0,34,0.00,CLR,,0.00,WeatherDisplay:10.37,2013-03-05 18:00:00,
2013-03-05 13:05:00,66.7,38.9,29.99,SSW,201,1.0,3.0,36,0.00,CLR,,0.00,WeatherDisplay:10.37,2013-03-05 18:05:00,
2013-03-05 13:10:00,65.9,40.3,29.98,South,184,3.0,7.0,39,0.00,CLR,,0.00,WeatherDisplay:10.37,2013-03-05 18:10:00,
2013-03-05 13:15:00,65.1,40.8,29.98,South,182,2.0,6.0,41,0.00,CLR,,0.00,WeatherDisplay:10.37,2013-03-05 18:15:00,
2013-03-05 13:20:00,64.6,40.3,29.98,South,185,2.0,7.0,41,0.00,CLR,,0.00,WeatherDisplay:10.37,2013-03-05 18:20:00,
2013-03-05 13:25:00,64.0,39.8,29.98,South,189,2.0,7.0,41,0.00,CLR,,0.00,WeatherDisplay:10.37,2013-03-05 18:25:00,
2013-03-05 13:30:00,63.5,41.2,29.97,South,186,1.0,7.0,44,0.00,CLR,,0.00,WeatherDisplay:10.37,2013-03-05 18:30:00,
2013-03-05 13:40:00,62.6,41.0,29.97,SSW,203,3.0,8.0,45,0.00,CLR,,0.00,WeatherDisplay:10.37,2013-03-05 18:40:00,
2013-03-05 13:45:00,62.2,41.2,29.96,SSW,196,2.0,6.0,46,0.00,CLR,,0.00,WeatherDisplay:10.37,2013-03-05 18:45:00,
2013-03-05 13:50:00,62.1,41.6,29.96,South,191,2.0,6.0,47,0.00,CLR,,0.00,WeatherDisplay:10.37,2013-03-05 18:50:00,
2013-03-05 13:55:00,62.0,42.1,29.95,SSE,164,2.0,5.0,48,0.00,CLR,,0.00,WeatherDisplay:10.37,2013-03-05 18:55:00,
2013-03-05 14:00:00,62.1,42.7,29.95,South,190,1.0,6.0,49,0.00,CLR,,0.00,WeatherDisplay:10.37,2013-03-05 19:00:00,
2013-03-05 14:05:00,61.9,42.5,29.95,SSW,193,1.0,6.0,49,0.00,CLR,,0.00,WeatherDisplay:10.37,2013-03-05 19:05:00,
2013-03-05 14:10:00,62.1,43.2,29.95,South,180,1.0,5.0,50,0.00,CLR,,0.00,WeatherDisplay:10.37,2013-03-05 19:10:00,
2013-03-05 14:15:00,62.1,43.2,29.94,South,186,2.0,8.0,50,0.00,CLR,,0.00,WeatherDisplay:10.37,2013-03-05 19:15:00,
2013-03-05 14:20:00,62.2,43.4,29.94,SSW,197,1.0,6.0,50,0.00,CLR,,0.00,WeatherDisplay:10.37,2013-03-05 19:20:00,
2013-03-05 14:25:00,62.6,43.2,29.94,SSW,198,2.0,5.0,49,0.00,CLR,,0.00,WeatherDisplay:10.37,2013-03-05 19:25:00,
2013-03-05 14:30:00,63.1,43.7,29.93,South,172,1.0,6.0,49,0.00,CLR,,0.00,WeatherDisplay:10.37,2013-03-05 19:30:00,
2013-03-05 14:40:00,65.3,41.6,29.92,South,175,3.0,8.0,42,0.00,CLR,,0.00,WeatherDisplay:10.37,2013-03-05 19:40:00,
2013-03-05 14:45:00,65.7,42.6,29.92,South,178,2.0,6.0,43,0.00,CLR,,0.00,WeatherDisplay:10.37,2013-03-05 19:45:00,
2013-03-05 14:50:00,66.4,42.6,29.92,SSE,168,3.0,6.0,42,0.00,CLR,,0.00,WeatherDisplay:10.37,2013-03-05 19:50:00,
2013-03-05 14:55:00,66.6,42.1,29.92,SSE,164,2.0,7.0,41,0.00,CLR,,0.00,WeatherDisplay:10.37,2013-03-05 19:55:00,
2013-03-05 15:00:00,66.7,41.6,29.92,SSW,194,1.0,8.0,40,0.00,CLR,,0.00,WeatherDisplay:10.37,2013-03-05 20:00:00,
2013-03-05 15:05:00,66.9,41.1,29.92,SSW,200,3.0,9.0,39,0.00,CLR,,0.00,WeatherDisplay:10.37,2013-03-05 20:05:00,
2013-03-05 15:10:00,67.3,40.8,29.91,South,181,2.0,7.0,38,0.00,CLR,,0.00,WeatherDisplay:10.37,2013-03-05 20:10:00,
2013-03-05 15:20:00,67.1,39.2,29.90,South,190,1.0,10.0,36,0.00,CLR,,0.00,WeatherDisplay:10.37,2013-03-05 20:20:00,
2013-03-05 15:25:00,67.0,39.9,29.90,SSW,208,2.0,11.0,37,0.00,CLR,,0.00,WeatherDisplay:10.37,2013-03-05 20:25:00,
2013-03-05 15:30:00,66.9,40.5,29.90,SSW,207,2.0,12.0,38,0.00,CLR,,0.00,WeatherDisplay:10.37,2013-03-05 20:30:00,
2013-03-05 15:35:00,66.9,41.1,29.90,SSW,193,2.0,14.0,39,0.00,CLR,,0.00,WeatherDisplay:10.37,2013-03-05 20:35:00,
2013-03-05 15:40:00,67.1,40.6,29.90,SSW,207,2.0,11.0,38,0.00,CLR,,0.00,WeatherDisplay:10.37,2013-03-05 20:40:00,
2013-03-05 15:45:00,67.0,41.2,29.90,SW,230,1.0,7.0,39,0.00,CLR,,0.00,WeatherDisplay:10.37,2013-03-05 20:45:00,
2013-03-05 15:50:00,66.6,42.1,29.89,SW,215,2.0,8.0,41,0.00,CLR,,0.00,WeatherDisplay:10.37,2013-03-05 20:50:00,
2013-03-05 15:55:00,66.6,42.1,29.89,SSW,201,5.0,14.0,41,0.00,CLR,,0.00,WeatherDisplay:10.37,2013-03-05 20:55:00,
2013-03-05 16:00:00,66.2,42.4,29.89,SW,218,2.0,9.0,42,0.00,CLR,,0.00,WeatherDisplay:10.37,2013-03-05 21:00:00,
2013-03-05 16:05:00,66.2,43.0,29.89,SW,222,2.0,8.0,43,0.00,CLR,,0.00,WeatherDisplay:10.37,2013-03-05 21:05:00,
2013-03-05 16:10:00,66.0,42.3,29.88,South,190,5.0,14.0,42,0.00,CLR,,0.00,WeatherDisplay:10.37,2013-03-05 21:10:00,
2013-03-05 16:15:00,65.8,42.7,29.88,South,182,1.0,7.0,43,0.00,CLR,,0.00,WeatherDisplay:10.37,2013-03-05 21:15:00,
2013-03-05 16:20:00,65.8,43.3,29.88,SSW,197,3.0,12.0,44,0.00,CLR,,0.00,WeatherDisplay:10.37,2013-03-05 21:20:00,
2013-03-05 16:25:00,65.8,43.9,29.88,SSW,194,1.0,7.0,45,0.00,CLR,,0.00,WeatherDisplay:10.37,2013-03-05 21:25:00,
2013-03-05 16:30:00,65.7,44.3,29.88,SW,215,5.0,12.0,46,0.00,CLR,,0.00,WeatherDisplay:10.37,2013-03-05 21:30:00,
2013-03-05 16:35:00,65.7,44.9,29.88,SW,221,3.0,9.0,47,0.00,CLR,,0.00,WeatherDisplay:10.37,2013-03-05 21:35:00,
2013-03-05 16:40:00,65.6,45.4,29.88,SSW,211,1.0,11.0,48,0.00,CLR,,0.00,WeatherDisplay:10.37,2013-03-05 21:40:00,
2013-03-05 16:45:00,65.3,45.7,29.88,SW,214,1.0,6.0,49,0.00,CLR,,0.00,WeatherDisplay:10.37,2013-03-05 21:45:00,
2013-03-05 16:50:00,65.3,46.2,29.88,SW,219,2.0,8.0,50,0.00,CLR,,0.00,WeatherDisplay:10.37,2013-03-05 21:50:00,
2013-03-05 16:55:00,65.1,47.1,29.87,SW,219,2.0,8.0,52,0.00,CLR,,0.00,WeatherDisplay:10.37,2013-03-05 21:55:00,
2013-03-05 17:00:00,64.9,46.9,29.88,SW,233,2.0,8.0,52,0.00,CLR,,0.00,WeatherDisplay:10.37,2013-03-05 22:00:00,
2013-03-05 17:05:00,64.4,46.9,29.88,SW,223,1.0,8.0,53,0.00,CLR,,0.00,WeatherDisplay:10.37,2013-03-05 22:05:00,
2013-03-05 17:10:00,64.4,46.9,29.87,SSW,196,3.0,8.0,53,0.00,CLR,,0.00,WeatherDisplay:10.37,2013-03-05 22:10:00,
2013-03-05 17:15:00,63.9,46.4,29.87,South,188,3.0,8.0,53,0.00,CLR,,0.00,WeatherDisplay:10.37,2013-03-05 22:15:00,
2013-03-05 17:20:00,63.5,46.1,29.87,SSW,204,3.0,8.0,53,0.00,CLR,,0.00,WeatherDisplay:10.37,2013-03-05 22:20:00,
2013-03-05 17:25:00,63.2,46.3,29.86,SW,222,1.0,6.0,54,0.00,CLR,,0.00,WeatherDisplay:10.37,2013-03-05 22:25:00,
2013-03-05 17:30:00,62.9,46.9,29.86,SSW,205,2.0,6.0,56,0.00,CLR,,0.00,WeatherDisplay:10.37,2013-03-05 22:30:00,
2013-03-05 17:35:00,62.6,47.1,29.86,SSW,207,1.0,8.0,57,0.00,CLR,,0.00,WeatherDisplay:10.37,2013-03-05 22:35:00,
2013-03-05 17:40:00,62.4,47.0,29.86,SW,215,1.0,7.0,57,0.00,CLR,,0.00,WeatherDisplay:10.37,2013-03-05 22:40:00,
2013-03-05 17:45:00,62.2,47.3,29.86,WSW,240,5.0,10.0,58,0.00,CLR,,0.00,WeatherDisplay:10.37,2013-03-05 22:45:00,
2013-03-05 17:50:00,62.0,47.0,29.86,SSW,213,2.0,8.0,58,0.00,CLR,,0.00,WeatherDisplay:10.37,2013-03-05 22:50:00,
2013-03-05 17:55:00,61.5,46.1,29.86,SSW,213,1.0,10.0,57,0.00,CLR,,0.00,WeatherDisplay:10.37,2013-03-05 22:55:00,
2013-03-05 18:00:00,61.3,46.4,29.86,SSW,202,1.0,5.0,58,0.00,CLR,,0.00,WeatherDisplay:10.37,2013-03-05 23:00:00,
2013-03-05 18:05:00,61.0,46.1,29.86,SSW,200,0.0,8.0,58,0.00,CLR,,0.00,WeatherDisplay:10.37,2013-03-05 23:05:00,
2013-03-05 18:10:00,60.8,46.4,29.85,South,188,2.0,7.0,59,0.00,CLR,,0.00,WeatherDisplay:10.37,2013-03-05 23:10:00,
2013-03-05 18:15:00,60.6,46.7,29.86,South,190,1.0,4.0,60,0.00,CLR,,0.00,WeatherDisplay:10.37,2013-03-05 23:15:00,
2013-03-05 18:20:00,60.3,46.3,29.86,SSW,201,1.0,6.0,60,0.00,CLR,,0.00,WeatherDisplay:10.37,2013-03-05 23:20:00,
2013-03-05 18:25:00,60.3,46.8,29.85,SSW,206,1.0,4.0,61,0.00,CLR,,0.00,WeatherDisplay:10.37,2013-03-05 23:25:00,
2013-03-05 18:30:00,60.0,46.9,29.85,SSW,200,1.0,6.0,62,0.00,CLR,,0.00,WeatherDisplay:10.37,2013-03-05 23:30:00,
2013-03-05 18:35:00,59.9,47.3,29.85,South,191,2.0,7.0,63,0.00,CLR,,0.00,WeatherDisplay:10.37,2013-03-05 23:35:00,
2013-03-05 18:40:00,59.9,47.3,29.85,South,188,2.0,4.0,63,0.00,CLR,,0.00,WeatherDisplay:10.37,2013-03-05 23:40:00,
2013-03-05 18:45:00,59.4,48.5,29.84,SSW,198,3.0,8.0,67,0.00,CLR,,0.00,WeatherDisplay:10.37,2013-03-05 23:45:00,
2013-03-05 18:50:00,59.2,48.6,29.84,SSW,206,1.0,7.0,68,0.00,CLR,,0.00,WeatherDisplay:10.37,2013-03-05 23:50:00,
2013-03-05 18:55:00,59.0,48.4,29.84,SSW,195,2.0,6.0,68,0.00,CLR,,0.00,WeatherDisplay:10.37,2013-03-05 23:55:00,
2013-03-05 19:00:00,58.8,48.3,29.83,SSW,202,1.0,6.0,68,0.00,CLR,,0.00,WeatherDisplay:10.37,2013-03-06 00:00:00,
2013-03-05 19:05:00,58.6,48.1,29.83,SW,231,1.0,4.0,68,0.00,CLR,,0.00,WeatherDisplay:10.37,2013-03-06 00:05:00,
2013-03-05 19:15:00,58.6,47.7,29.83,SW,218,2.0,9.0,67,0.00,CLR,,0.00,WeatherDisplay:10.37,2013-03-06 00:15:00,
2013-03-05 19:20:00,58.8,47.9,29.83,SW,214,1.0,6.0,67,0.00,CLR,,0.00,WeatherDisplay:10.37,2013-03-06 00:20:00,
2013-03-05 19:25:00,58.8,47.5,29.82,SSW,192,1.0,6.0,66,0.00,CLR,,0.00,WeatherDisplay:10.37,2013-03-06 00:25:00,
2013-03-05 19:30:00,58.6,47.3,29.82,SW,226,1.0,6.0,66,0.00,CLR,,0.00,WeatherDisplay:10.37,2013-03-06 00:30:00,
2013-03-05 19:35:00,58.8,47.9,29.82,SW,219,2.0,6.0,67,0.00,CLR,,0.00,WeatherDisplay:10.37,2013-03-06 00:35:00,
2013-03-05 19:40:00,58.8,47.9,29.80,SSW,193,2.0,5.0,67,0.00,CLR,,0.00,WeatherDisplay:10.37,2013-03-06 00:40:00,
2013-03-05 19:45:00,59.0,47.7,29.80,SSW,192,2.0,6.0,66,0.00,CLR,,0.00,WeatherDisplay:10.37,2013-03-06 00:45:00,
2013-03-05 19:50:00,59.0,47.7,29.80,SSW,197,2.0,6.0,66,0.00,CLR,,0.00,WeatherDisplay:10.37,2013-03-06 00:50:00,
2013-03-05 19:55:00,59.0,47.7,29.79,SSW,193,1.0,8.0,66,0.00,CLR,,0.00,WeatherDisplay:10.37,2013-03-06 00:55:00,
2013-03-05 20:00:00,59.2,48.2,29.78,SSW,209,2.0,9.0,67,0.00,CLR,,0.00,WeatherDisplay:10.37,2013-03-06 01:00:00,
2013-03-05 20:05:00,59.2,48.2,29.78,South,175,1.0,6.0,67,0.00,CLR,,0.00,WeatherDisplay:10.37,2013-03-06 01:05:00,
2013-03-05 20:10:00,59.4,48.4,29.76,South,175,3.0,11.0,67,0.00,CLR,,0.00,WeatherDisplay:10.37,2013-03-06 01:10:00,
2013-03-05 20:15:00,59.5,49.0,29.76,SSW,204,3.0,8.0,68,0.00,CLR,,0.00,WeatherDisplay:10.37,2013-03-06 01:15:00,
2013-03-05 20:20:00,59.7,49.5,29.76,SW,226,3.0,8.0,69,0.00,CLR,,0.00,WeatherDisplay:10.37,2013-03-06 01:20:00,
2013-03-05 20:25:00,59.8,50.0,29.75,SW,219,3.0,9.0,70,0.00,CLR,,0.00,WeatherDisplay:10.37,2013-03-06 01:25:00,
2013-03-05 20:30:00,60.1,50.3,29.75,SSW,213,2.0,8.0,70,0.00,CLR,,0.00,WeatherDisplay:10.37,2013-03-06 01:30:00,
2013-03-05 20:35:00,60.1,50.6,29.74,South,180,3.0,10.0,71,0.00,CLR,,0.00,WeatherDisplay:10.37,2013-03-06 01:35:00,
2013-03-05 20:40:00,60.3,50.9,29.75,SSW,193,3.0,12.0,71,0.00,CLR,,0.00,WeatherDisplay:10.37,2013-03-06 01:40:00,
2013-03-05 20:50:00,60.6,51.5,29.74,South,189,5.0,10.0,72,0.00,CLR,,0.00,WeatherDisplay:10.37,2013-03-06 01:50:00,
2013-03-05 20:55:00,60.6,51.5,29.74,SSW,199,1.0,8.0,72,0.00,CLR,,0.00,WeatherDisplay:10.37,2013-03-06 01:55:00,
2013-03-05 21:05:00,60.6,52.3,29.74,South,184,1.0,9.0,74,0.00,CLR,,0.00,WeatherDisplay:10.37,2013-03-06 02:05:00,
2013-03-05 21:10:00,60.8,53.2,29.73,ENE,70,2.0,8.0,76,0.00,CLR,,0.00,WeatherDisplay:10.37,2013-03-06 02:10:00,
2013-03-05 21:15:00,60.8,53.9,29.72,SSW,204,6.0,12.0,78,0.00,CLR,,0.00,WeatherDisplay:10.37,2013-03-06 02:15:00,
2013-03-05 21:20:00,60.8,54.2,29.71,SSW,194,3.0,12.0,79,0.00,CLR,,0.00,WeatherDisplay:10.37,2013-03-06 02:20:00,
2013-03-05 21:30:00,60.8,54.6,29.72,SSW,198,3.0,8.0,80,0.00,CLR,,0.00,WeatherDisplay:10.37,2013-03-06 02:30:00,
2013-03-05 21:35:00,60.8,54.6,29.72,South,181,2.0,8.0,80,0.00,CLR,,0.00,WeatherDisplay:10.37,2013-03-06 02:35:00,
2013-03-05 21:40:00,61.0,54.4,29.72,SSW,195,2.0,8.0,79,0.00,CLR,,0.00,WeatherDisplay:10.37,2013-03-06 02:40:00,
2013-03-05 21:45:00,61.3,54.4,29.72,SW,226,2.0,16.0,78,0.00,CLR,,0.00,WeatherDisplay:10.37,2013-03-06 02:45:00,
2013-03-05 21:50:00,61.5,54.2,29.72,SW,231,2.0,6.0,77,0.00,CLR,,0.00,WeatherDisplay:10.37,2013-03-06 02:50:00,
2013-03-05 21:55:00,61.9,54.3,29.72,SSW,200,2.0,13.0,76,0.00,CLR,,0.00,WeatherDisplay:10.37,2013-03-06 02:55:00,
2013-03-05 22:00:00,62.3,54.2,29.71,SSW,209,3.0,9.0,75,0.00,CLR,,0.00,WeatherDisplay:10.37,2013-03-06 03:00:00,
2013-03-05 22:05:00,62.4,54.4,29.72,South,182,2.0,6.0,75,0.00,CLR,,0.00,WeatherDisplay:10.37,2013-03-06 03:05:00,
2013-03-05 22:10:00,62.8,54.7,29.72,SSE,157,2.0,13.0,75,0.00,CLR,,0.00,WeatherDisplay:10.37,2013-03-06 03:10:00,
2013-03-05 22:15:00,63.1,55.1,29.72,South,186,5.0,10.0,75,0.00,CLR,,0.00,WeatherDisplay:10.37,2013-03-06 03:15:00,
2013-03-05 22:20:00,63.1,56.5,29.72,SW,233,3.0,9.0,79,0.00,CLR,,0.00,WeatherDisplay:10.37,2013-03-06 03:20:00,
2013-03-05 22:25:00,62.0,56.8,29.71,SW,233,2.0,8.0,83,0.01,RA,,0.01,WeatherDisplay:10.37,2013-03-06 03:25:00,
2013-03-05 22:30:00,61.1,57.8,29.71,SSW,213,2.0,13.0,89,0.01,RA,,0.02,WeatherDisplay:10.37,2013-03-06 03:30:00,
2013-03-05 22:35:00,60.0,58.6,29.70,SSW,200,2.0,6.0,95,0.02,RA,,0.05,WeatherDisplay:10.37,2013-03-06 03:35:00,
2013-03-05 22:40:00,59.4,58.8,29.70,SSW,209,1.0,12.0,98,0.01,RA,,0.06,WeatherDisplay:10.37,2013-03-06 03:40:00,
2013-03-05 22:45:00,59.0,58.7,29.69,SSW,203,1.0,11.0,99,0.01,RA,,0.07,WeatherDisplay:10.37,2013-03-06 03:45:00,
2013-03-05 22:50:00,58.6,58.4,29.68,SSW,195,2.0,6.0,99,0.00,RA,,0.07,WeatherDisplay:10.37,2013-03-06 03:50:00,
2013-03-05 22:55:00,58.3,58.0,29.67,SW,230,2.0,6.0,99,0.00,CLR,,0.07,WeatherDisplay:10.37,2013-03-06 03:55:00,
2013-03-05 23:00:00,58.3,58.0,29.67,SW,224,2.0,6.0,99,0.00,CLR,,0.07,WeatherDisplay:10.37,2013-03-06 04:00:00,
2013-03-05 23:05:00,58.1,57.8,29.66,SSW,201,1.0,6.0,99,0.00,CLR,,0.07,WeatherDisplay:10.37,2013-03-06 04:05:00,
2013-03-05 23:10:00,57.8,57.5,29.66,SSW,196,2.0,8.0,99,0.00,CLR,,0.07,WeatherDisplay:10.37,2013-03-06 04:10:00,
2013-03-05 23:15:00,57.9,57.7,29.66,SSW,198,1.0,8.0,99,0.00,CLR,,0.07,WeatherDisplay:10.37,2013-03-06 04:15:00,
2013-03-05 23:20:00,58.2,57.9,29.66,SW,223,2.0,10.0,99,0.00,CLR,,0.07,WeatherDisplay:10.37,2013-03-06 04:20:00,
2013-03-05 23:25:00,58.5,58.2,29.65,SW,229,1.0,8.0,99,0.00,CLR,,0.07,WeatherDisplay:10.37,2013-03-06 04:25:00,
2013-03-05 23:30:00,58.7,58.4,29.66,SW,232,1.0,6.0,99,0.00,CLR,,0.07,WeatherDisplay:10.37,2013-03-06 04:30:00,
2013-03-05 23:35:00,58.8,58.5,29.66,WSW,239,2.0,8.0,99,0.00,CLR,,0.07,WeatherDisplay:10.37,2013-03-06 04:35:00,
2013-03-05 23:40:00,59.2,58.9,29.65,WSW,245,2.0,8.0,99,0.00,CLR,,0.07,WeatherDisplay:10.37,2013-03-06 04:40:00,
2013-03-05 23:45:00,59.4,59.1,29.66,WSW,246,0.0,6.0,99,0.00,CLR,,0.07,WeatherDisplay:10.37,2013-03-06 04:45:00,
2013-03-05 23:50:00,59.5,59.3,29.66,SW,236,1.0,5.0,99,0.00,CLR,,0.07,WeatherDisplay:10.37,2013-03-06 04:50:00,
2013-03-05 23:55:00,59.5,59.3,29.66,SW,231,0.0,4.0,99,0.00,CLR,,0.07,WeatherDisplay:10.37,2013-03-06 04:55:00,